Lemmer, Netherlands
Current Conditions -  °F | °C
As of 8:25 PM on Thursday 23 Oct 2014 (Local Time) from EHLW Reporting Station
Overcast Overcast  
Wind Chill: 55°   Ceiling: 2700
Heat Index: 55°   Visibility: 6mi
Dew Point: 50°   Wind: 13mph
Humidity: 82%   Direction: 200°SSW
Pressure: 30.09"   Gusts: NA
Location:  52.85°N, 5.71°E
Report Text: EHLW 231825Z AUTO 20011KT 9999 BKN027 BKN031 OVC035 13/10 Q1019 BLU
Loading
Personal Weather Stations






























Interactive Weather Map
Tropical Storm Tracking
New forecast layout! Learn more

10-Day Weather Forecast

Advertisements
Track Severe Weather on mobile